Time;durP1;ratioP1;P1;durP2;ratioP2;P2;SDS_P1;SDS_P2;PMS_P1;PMS_P2;Temp;Humidity;BMP_temperature;BMP_pressure;BME280_temperature;BME280_humidity;BME280_pressure;Samples;Min_cycle;Max_cycle;Signal;HPM_P1;HPM_P2
2023/04/27 00:01:28;;;;;;;9.80;5.50;;;;;;;0.83;100.00;97049.90;110097;1244;59656;-78
2023/04/27 00:03:58;;;;;;;9.60;6.30;;;;;;;0.82;100.00;97047.38;110087;1245;71222;-78
2023/04/27 00:06:31;;;;;;;9.10;6.40;;;;;;;0.81;100.00;97049.63;110111;1245;69062;-78
2023/04/27 00:09:03;;;;;;;11.20;7.10;;;;;;;0.81;100.00;97049.46;110080;1244;68725;-78
2023/04/27 00:11:34;;;;;;;10.90;6.80;;;;;;;0.80;100.00;97045.75;110061;1245;59653;-78
2023/04/27 00:14:07;;;;;;;7.80;6.40;;;;;;;0.75;100.00;97048.84;110083;1245;59657;-79
2023/04/27 00:16:38;;;;;;;9.20;6.80;;;;;;;0.70;100.00;97047.33;110120;1246;71327;-78
2023/04/27 00:19:09;;;;;;;8.30;6.90;;;;;;;0.64;100.00;97048.57;110110;1243;69145;-79
2023/04/27 00:21:42;;;;;;;8.80;6.30;;;;;;;0.59;100.00;97047.27;110100;1245;69416;-78
2023/04/27 00:24:15;;;;;;;8.30;5.50;;;;;;;0.52;100.00;97050.25;110132;1244;59740;-79
2023/04/27 00:26:49;;;;;;;10.00;6.70;;;;;;;0.46;100.00;97053.40;110129;1245;59683;-79
2023/04/27 00:29:24;;;;;;;10.20;7.70;;;;;;;0.40;100.00;97054.13;109795;1244;71432;-79
2023/04/27 00:31:59;;;;;;;9.90;6.80;;;;;;;0.34;100.00;97055.89;110108;1245;69414;-79
2023/04/27 00:34:30;;;;;;;9.10;7.00;;;;;;;0.30;100.00;97053.48;110102;1245;69097;-80
2023/04/27 00:37:00;;;;;;;7.80;5.50;;;;;;;0.25;100.00;97057.27;110688;1242;59669;-79
2023/04/27 00:39:34;;;;;;;12.70;8.10;;;;;;;0.21;100.00;97062.58;110588;1242;59635;-79
2023/04/27 00:42:10;;;;;;;8.00;6.50;;;;;;;0.18;100.00;97074.14;110265;1242;71422;-79
2023/04/27 00:44:43;;;;;;;7.30;5.00;;;;;;;0.15;100.00;97072.89;110180;1241;69039;-79
2023/04/27 00:47:20;;;;;;;12.70;7.60;;;;;;;0.11;100.00;97072.54;109887;1242;69575;-79
2023/04/27 00:49:55;;;;;;;10.10;7.10;;;;;;;0.06;100.00;97068.77;110134;1241;59717;-79
2023/04/27 00:52:31;;;;;;;10.00;7.10;;;;;;;0.05;100.00;97066.42;110135;1245;59781;-79
2023/04/27 00:55:06;;;;;;;10.80;7.50;;;;;;;0.00;100.00;97068.64;110199;1241;71281;-79
2023/04/27 00:57:43;;;;;;;10.80;7.20;;;;;;;-0.05;100.00;97066.92;110143;1245;69614;-79
2023/04/27 01:00:21;;;;;;;9.00;7.30;;;;;;;-0.09;100.00;97070.85;110122;1242;68503;-79
2023/04/27 01:02:54;;;;;;;8.60;6.50;;;;;;;-0.13;100.00;97063.97;110165;1242;59708;-79
2023/04/27 01:05:28;;;;;;;12.20;8.60;;;;;;;-0.16;100.00;97068.87;110181;1242;59683;-79
2023/04/27 01:08:02;;;;;;;10.10;6.50;;;;;;;-0.18;100.00;97068.62;110195;1242;71319;-79
2023/04/27 01:10:36;;;;;;;13.70;8.00;;;;;;;-0.21;100.00;97072.83;110190;1242;69303;-79
2023/04/27 01:13:06;;;;;;;12.60;8.00;;;;;;;-0.23;100.00;97074.27;110129;1240;67475;-79
2023/04/27 01:15:41;;;;;;;18.80;11.30;;;;;;;-0.24;100.00;97078.24;110166;1242;59667;-79
2023/04/27 01:18:14;;;;;;;15.50;10.50;;;;;;;-0.28;100.00;97078.02;110237;1242;59631;-79
2023/04/27 01:20:45;;;;;;;14.80;8.90;;;;;;;-0.29;100.00;97078.41;110114;1244;71218;-79
2023/04/27 01:23:19;;;;;;;10.70;7.40;;;;;;;-0.33;100.00;97078.71;110164;1244;68426;-79
2023/04/27 01:25:51;;;;;;;11.60;8.70;;;;;;;-0.38;100.00;97077.17;110214;1241;68365;-79
2023/04/27 01:28:23;;;;;;;15.60;8.70;;;;;;;-0.42;100.00;97077.30;110211;1242;59772;-79
2023/04/27 01:30:54;;;;;;;14.10;9.30;;;;;;;-0.42;100.00;97082.29;110200;1241;59770;-79
2023/04/27 01:33:28;;;;;;;13.40;8.60;;;;;;;-0.45;100.00;97084.96;110180;1240;71373;-79
2023/04/27 01:36:03;;;;;;;13.50;7.60;;;;;;;-0.45;100.00;97087.38;110204;1242;68665;-79
2023/04/27 01:38:36;;;;;;;11.90;8.00;;;;;;;-0.46;100.00;97086.02;110176;1242;69154;-79
2023/04/27 01:41:08;;;;;;;13.20;9.10;;;;;;;-0.45;100.00;97090.61;110230;1242;59695;-79
2023/04/27 01:43:42;;;;;;;13.30;9.60;;;;;;;-0.46;100.00;97090.98;110192;1242;59643;-79
2023/04/27 01:46:13;;;;;;;13.20;9.60;;;;;;;-0.48;100.00;97090.55;110158;1241;70477;-79
2023/04/27 01:48:43;;;;;;;12.10;8.90;;;;;;;-0.52;100.00;97092.73;110153;1245;69334;-79
2023/04/27 01:51:15;;;;;;;9.60;7.20;;;;;;;-0.56;100.00;97089.79;110102;1242;69253;-79
2023/04/27 01:53:47;;;;;;;11.60;8.80;;;;;;;-0.60;100.00;97095.22;110083;1245;59676;-78
2023/04/27 01:56:19;;;;;;;10.90;8.40;;;;;;;-0.66;100.00;97097.30;110186;1242;59681;-79
2023/04/27 01:58:54;;;;;;;18.10;12.40;;;;;;;-0.70;100.00;97096.58;110213;1242;70371;-79
2023/04/27 02:01:26;;;;;;;15.50;10.20;;;;;;;-0.71;100.00;97095.78;110346;1242;68833;-79
2023/04/27 02:03:57;;;;;;;15.30;9.70;;;;;;;-0.74;100.00;97096.19;110154;1246;69524;-78
2023/04/27 02:06:31;;;;;;;14.00;9.60;;;;;;;-0.74;100.00;97099.79;110175;1241;59756;-78
2023/04/27 02:09:01;;;;;;;15.10;9.40;;;;;;;-0.76;100.00;97099.52;110186;1245;59681;-79
2023/04/27 02:11:31;;;;;;;;;;;;;;;-0.76;100.00;97100.70;110230;1241;71344;-78
2023/04/27 02:14:00;;;;;;;11.50;8.00;;;;;;;-0.78;100.00;97100.08;110173;1240;69131;-79
2023/04/27 02:16:35;;;;;;;10.20;8.30;;;;;;;-0.80;100.00;97102.39;110138;1242;68555;-79
2023/04/27 02:19:07;;;;;;;14.70;10.30;;;;;;;-0.82;100.00;97103.45;110181;1242;59737;-79
2023/04/27 02:21:39;;;;;;;14.60;9.40;;;;;;;-0.83;100.00;97104.20;110109;1244;59691;-79
2023/04/27 02:24:12;;;;;;;13.40;8.80;;;;;;;-0.86;100.00;97105.63;110182;1242;71270;-79
2023/04/27 02:26:47;;;;;;;10.20;8.20;;;;;;;-0.89;100.00;97110.70;110145;1247;68118;-78
2023/04/27 02:29:19;;;;;;;12.30;8.40;;;;;;;-0.91;100.00;97114.39;110127;1244;68523;-79
2023/04/27 02:31:49;;;;;;;15.70;8.90;;;;;;;-0.94;100.00;97117.56;110195;1242;59686;-79
2023/04/27 02:34:21;;;;;;;11.60;8.60;;;;;;;-0.95;100.00;97118.27;110189;1241;59742;-78
2023/04/27 02:36:52;;;;;;;11.60;7.70;;;;;;;-0.95;100.00;97116.90;110104;1246;71390;-79
2023/04/27 02:39:23;;;;;;;13.50;10.30;;;;;;;-0.98;100.00;97122.97;110135;1240;68442;-79
2023/04/27 02:41:52;;;;;;;11.20;8.20;;;;;;;-1.00;100.00;97122.02;110126;1242;69643;-78
2023/04/27 02:44:22;;;;;;;9.00;6.50;;;;;;;-1.01;100.00;97124.29;110147;1241;59753;-79
2023/04/27 02:46:53;;;;;;;10.50;7.90;;;;;;;-1.03;100.00;97124.98;110131;1249;59682;-79
2023/04/27 02:49:22;;;;;;;;;;;;;;;-1.01;100.00;97129.77;110195;1240;70682;-80
2023/04/27 02:51:52;;;;;;;15.20;9.20;;;;;;;-1.03;100.00;97132.19;110612;1242;69153;-79
2023/04/27 02:54:22;;;;;;;;;;;;;;;-1.05;100.00;97131.75;110425;1241;68311;-77
2023/04/27 02:56:52;;;;;;;9.00;7.50;;;;;;;-1.07;100.00;97130.78;110151;1245;59711;-78
2023/04/27 02:59:22;;;;;;;12.70;7.20;;;;;;;-1.10;100.00;97138.77;110103;1244;59696;-78
2023/04/27 03:01:53;;;;;;;13.70;8.40;;;;;;;-1.14;100.00;97137.33;110188;1242;71175;-78
2023/04/27 03:04:24;;;;;;;13.80;8.10;;;;;;;-1.15;100.00;97140.60;110125;1245;68475;-78
2023/04/27 03:06:55;;;;;;;9.20;7.60;;;;;;;-1.15;100.00;97144.37;110188;1245;69104;-78
2023/04/27 03:09:25;;;;;;;;;;;;;;;-1.17;100.00;97144.77;110113;1244;59670;-78
2023/04/27 03:11:54;;;;;;;15.90;10.40;;;;;;;-1.15;100.00;97152.56;110179;1242;59753;-78
2023/04/27 03:14:25;;;;;;;18.60;11.80;;;;;;;-1.05;100.00;97149.69;110174;1241;69549;-78
2023/04/27 03:16:56;;;;;;;17.50;10.60;;;;;;;-0.96;100.00;97149.62;110133;1245;68574;-78
2023/04/27 03:19:25;;;;;;;11.90;8.30;;;;;;;-0.90;100.00;97151.29;110247;1242;68536;-78
2023/04/27 03:21:55;;;;;;;14.00;8.80;;;;;;;-0.90;100.00;97156.94;110256;1240;59688;-78
2023/04/27 03:24:26;;;;;;;16.00;9.90;;;;;;;-0.89;100.00;97162.90;110171;1240;59729;-78
2023/04/27 03:26:57;;;;;;;11.60;8.60;;;;;;;-0.91;100.00;97163.48;110181;1242;71849;-78
2023/04/27 03:29:26;;;;;;;13.80;8.50;;;;;;;-0.92;100.00;97164.55;110188;1240;69054;-78
2023/04/27 03:31:56;;;;;;;13.30;8.60;;;;;;;-0.91;100.00;97168.11;110182;1240;68516;-79
2023/04/27 03:34:26;;;;;;;16.90;10.40;;;;;;;-0.92;100.00;97172.74;110189;1242;59695;-79
2023/04/27 03:36:56;;;;;;;15.90;11.20;;;;;;;-0.92;100.00;97174.47;110250;1241;59698;-79
2023/04/27 03:39:26;;;;;;;16.70;9.80;;;;;;;-0.97;100.00;97177.52;110249;1242;71965;-79
2023/04/27 03:41:58;;;;;;;12.20;8.70;;;;;;;-1.00;100.00;97182.73;110202;1242;69078;-79
2023/04/27 03:44:27;;;;;;;;;;;;;;;-1.01;100.00;97185.86;110144;1245;69270;-78
2023/04/27 03:46:57;;;;;;;16.50;10.20;;;;;;;-1.03;100.00;97188.64;110207;1242;59704;-77
2023/04/27 03:49:26;;;;;;;20.50;14.10;;;;;;;-1.04;100.00;97190.55;110215;1240;59726;-75
2023/04/27 03:51:57;;;;;;;35.20;20.80;;;;;;;-1.05;100.00;97191.77;110176;1242;70652;-77
2023/04/27 03:54:26;;;;;;;40.60;23.70;;;;;;;-1.05;100.00;97192.80;110103;1244;69295;-76
2023/04/27 03:56:56;;;;;;;45.90;33.20;;;;;;;-1.04;100.00;97195.33;110211;1242;67843;-78
2023/04/27 03:59:28;;;;;;;;;;;;;;;-1.02;100.00;97199.04;110141;1245;59715;-78
2023/04/27 04:01:57;;;;;;;31.80;20.30;;;;;;;-1.00;100.00;97201.41;110229;1242;59668;-77
2023/04/27 04:04:29;;;;;;;26.30;16.80;;;;;;;-0.97;100.00;97200.96;110090;1245;71656;-78
2023/04/27 04:06:59;;;;;;;23.30;15.30;;;;;;;-0.87;100.00;97202.86;110199;1246;69224;-78
2023/04/27 04:09:28;;;;;;;20.60;12.70;;;;;;;-0.73;100.00;97203.31;110168;1242;69846;-78
2023/04/27 04:11:57;;;;;;;26.00;14.00;;;;;;;-0.62;100.00;97209.11;110206;1241;59672;-79
2023/04/27 04:14:27;;;;;;;20.50;13.30;;;;;;;-0.48;100.00;97208.69;110190;1242;59625;-79
2023/04/27 04:16:58;;;;;;;27.10;18.60;;;;;;;-0.30;100.00;97213.40;110233;1242;71411;-78
2023/04/27 04:19:28;;;;;;;32.90;18.10;;;;;;;-0.14;100.00;97213.21;110126;1245;69262;-79
2023/04/27 04:21:58;;;;;;;22.10;14.60;;;;;;;0.04;100.00;97222.37;110129;1245;69347;-78
2023/04/27 04:24:27;;;;;;;25.60;17.40;;;;;;;0.22;100.00;97221.94;110199;1240;59756;-80
2023/04/27 04:26:57;;;;;;;26.90;17.90;;;;;;;0.36;100.00;97222.14;110256;1243;59615;-80
2023/04/27 04:29:27;;;;;;;26.90;19.10;;;;;;;0.40;100.00;97229.54;110179;1243;71820;-77
2023/04/27 04:31:56;;;;;;;25.20;17.40;;;;;;;0.42;100.00;97231.84;110242;1242;68550;-77
2023/04/27 04:34:26;;;;;;;22.50;15.90;;;;;;;0.44;100.00;97233.14;110228;1249;69684;-78
2023/04/27 04:36:58;;;;;;;18.70;12.70;;;;;;;0.55;100.00;97235.67;110235;1242;59718;-78
2023/04/27 04:39:31;;;;;;;17.60;13.50;;;;;;;0.80;100.00;97238.21;110224;1243;59664;-77
2023/04/27 04:42:00;;;;;;;18.00;12.70;;;;;;;1.07;100.00;97236.71;110143;1241;71394;-78
2023/04/27 04:44:30;;;;;;;20.10;13.20;;;;;;;1.38;100.00;97234.30;110137;1245;69238;-78
2023/04/27 04:47:00;;;;;;;14.30;10.80;;;;;;;1.75;100.00;97239.54;110117;1245;69179;-84
2023/04/27 04:49:29;;;;;;;14.10;9.90;;;;;;;1.97;100.00;97244.15;110240;1245;59670;-79
2023/04/27 04:51:58;;;;;;;11.80;9.50;;;;;;;2.37;100.00;97243.34;110233;1242;59669;-82
2023/04/27 04:54:27;;;;;;;11.70;9.10;;;;;;;2.68;100.00;97251.45;110267;1242;71197;-80
2023/04/27 04:56:58;;;;;;;11.00;8.90;;;;;;;2.96;100.00;97250.39;110258;1242;69047;-77
2023/04/27 04:59:27;;;;;;;13.20;9.00;;;;;;;3.18;100.00;97252.32;110186;1243;69814;-77
2023/04/27 05:01:59;;;;;;;9.40;7.80;;;;;;;3.57;100.00;97255.01;110443;1244;59696;-79
2023/04/27 05:04:29;;;;;;;10.80;7.70;;;;;;;3.99;100.00;97255.23;111136;1242;59609;-77
2023/04/27 05:06:59;;;;;;;9.90;7.70;;;;;;;4.39;100.00;97261.16;110408;1242;71700;-79
2023/04/27 05:09:28;;;;;;;10.90;8.30;;;;;;;4.76;100.00;97262.39;110234;1242;69891;-80
2023/04/27 05:11:57;;;;;;;12.30;8.40;;;;;;;5.08;100.00;97261.05;110255;1243;69842;-81
2023/04/27 05:14:26;;;;;;;9.80;8.90;;;;;;;5.38;100.00;97264.42;110205;1242;59667;-77
2023/04/27 05:16:55;;;;;;;10.20;8.00;;;;;;;5.58;99.38;97266.08;110248;1242;59678;-78
2023/04/27 05:19:27;;;;;;;10.20;8.10;;;;;;;5.66;92.15;97265.88;110145;1246;71384;-77
2023/04/27 05:21:57;;;;;;;8.60;7.00;;;;;;;5.74;89.60;97268.51;110238;1242;69247;-80
2023/04/27 05:24:26;;;;;;;8.60;6.50;;;;;;;5.81;84.34;97267.45;110192;1242;69923;-77
2023/04/27 05:26:55;;;;;;;8.20;7.10;;;;;;;6.10;89.21;97264.98;110199;1245;59743;-79
2023/04/27 05:29:24;;;;;;;7.90;6.50;;;;;;;6.37;86.32;97268.27;110138;1245;59747;-78
2023/04/27 05:31:54;;;;;;;10.50;7.90;;;;;;;6.76;87.11;97267.13;110248;1243;71354;-76
2023/04/27 05:34:23;;;;;;;10.50;7.60;;;;;;;7.04;86.56;97270.98;110231;1246;69250;-80
2023/04/27 05:36:52;;;;;;;8.50;7.40;;;;;;;7.07;79.65;97272.05;110228;1243;67582;-78
2023/04/27 05:39:22;;;;;;;9.40;7.20;;;;;;;7.17;77.13;97271.44;110186;1242;59713;-78
2023/04/27 05:41:52;;;;;;;10.00;6.60;;;;;;;7.28;77.17;97274.20;110247;1240;59737;-76
2023/04/27 05:44:24;;;;;;;6.60;5.80;;;;;;;7.44;75.55;97274.06;110176;1242;70647;-73
2023/04/27 05:46:53;;;;;;;7.70;5.80;;;;;;;7.79;78.22;97275.17;110358;1240;69382;-78
2023/04/27 05:49:22;;;;;;;9.40;6.30;;;;;;;8.38;78.05;97276.76;110094;1247;69214;-75
2023/04/27 05:51:52;;;;;;;9.00;6.20;;;;;;;8.45;70.19;97276.15;110186;1245;59733;-77
2023/04/27 05:54:21;;;;;;;6.70;5.40;;;;;;;8.29;71.07;97274.61;110289;1244;59677;-76
2023/04/27 05:56:50;;;;;;;6.60;5.30;;;;;;;8.59;68.32;97275.88;110178;1242;71274;-78
2023/04/27 05:59:20;;;;;;;7.10;4.90;;;;;;;8.32;66.46;97276.65;110286;1242;69799;-76
2023/04/27 06:01:49;;;;;;;5.60;3.80;;;;;;;8.77;68.35;97279.24;110328;1241;69153;-77
2023/04/27 06:04:18;;;;;;;4.40;3.90;;;;;;;8.98;65.46;97278.60;110187;1244;59680;-77
2023/04/27 06:06:48;;;;;;;5.40;3.70;;;;;;;9.46;64.71;97287.30;110312;1242;59671;-77
2023/04/27 06:09:17;;;;;;;5.50;3.80;;;;;;;9.98;66.73;97284.63;110187;1243;71402;-77
2023/04/27 06:11:46;;;;;;;;;;;;;;;10.38;64.47;97284.70;110206;1246;67828;-76
2023/04/27 06:14:16;;;;;;;5.20;3.40;;;;;;;10.46;58.97;97285.20;110199;1242;69365;-76
2023/04/27 06:16:45;;;;;;;3.90;3.40;;;;;;;10.80;59.13;97287.70;110303;1242;59666;-76
2023/04/27 06:19:15;;;;;;;4.70;3.20;;;;;;;10.80;60.36;97286.30;110294;1242;59638;-76
2023/04/27 06:21:44;;;;;;;5.10;3.60;;;;;;;10.63;55.20;97286.16;110359;1246;71364;-77
2023/04/27 06:24:14;;;;;;;4.60;3.30;;;;;;;10.81;57.82;97283.90;110196;1245;68861;-75
2023/04/27 06:26:43;;;;;;;5.80;3.10;;;;;;;11.27;60.39;97283.06;110231;1245;69072;-79
2023/04/27 06:29:12;;;;;;;5.90;3.50;;;;;;;11.68;58.75;97282.42;110216;1243;59777;-73
2023/04/27 06:31:43;;;;;;;4.80;3.50;;;;;;;11.53;56.20;97289.70;110274;1242;59705;-76
2023/04/27 06:34:17;;;;;;;4.10;3.50;;;;;;;11.66;55.43;97292.02;109967;1245;70818;-75
2023/04/27 06:36:46;;;;;;;6.10;3.90;;;;;;;11.49;54.43;97289.84;110279;1243;69875;-76
2023/04/27 06:39:15;;;;;;;4.20;3.40;;;;;;;11.68;55.99;97285.39;109872;1242;454625;-77
2023/04/27 06:41:44;;;;;;;4.70;3.30;;;;;;;11.89;56.32;97288.95;110149;1245;59805;-76
2023/04/27 06:44:18;;;;;;;4.40;3.10;;;;;;;11.89;52.81;97283.78;110162;1245;59640;-78
2023/04/27 06:46:48;;;;;;;5.90;3.50;;;;;;;11.76;53.26;97283.73;110261;1246;71440;-77
2023/04/27 06:49:17;;;;;;;5.30;3.50;;;;;;;11.84;54.40;97285.39;110176;1243;69131;-76
2023/04/27 06:51:48;;;;;;;4.00;3.20;;;;;;;12.26;54.49;97280.75;110219;1243;69270;-78
2023/04/27 06:54:17;;;;;;;3.50;2.90;;;;;;;12.48;53.72;97283.86;110276;1245;59675;-77
2023/04/27 06:56:47;;;;;;;6.50;3.60;;;;;;;12.57;52.06;97282.54;110140;1245;59702;-78
2023/04/27 06:59:15;;;;;;;4.80;3.40;;;;;;;12.67;53.28;97286.47;110202;1240;71373;-77
2023/04/27 07:01:45;;;;;;;4.60;2.90;;;;;;;12.95;51.13;97285.70;110178;1242;69249;-78
2023/04/27 07:04:14;;;;;;;;;;;;;;;12.97;51.51;97280.75;110214;1242;69308;-77
2023/04/27 07:06:43;;;;;;;3.80;3.00;;;;;;;13.27;51.34;97285.77;110216;1242;59734;-77
2023/04/27 07:09:12;;;;;;;4.10;3.00;;;;;;;13.14;49.68;97290.06;110186;1243;59646;-77
2023/04/27 07:11:54;;;;;;;4.90;2.90;;;;;;;13.29;49.82;97289.33;110209;1242;70993;-76
2023/04/27 07:14:23;;;;;;;5.80;2.80;;;;;;;13.38;47.06;97295.16;110241;1245;69620;-76
2023/04/27 07:16:52;;;;;;;3.90;2.80;;;;;;;13.46;48.78;97297.46;110311;1241;69847;-77
2023/04/27 07:19:21;;;;;;;5.00;2.50;;;;;;;13.40;48.06;97298.69;110940;1242;59602;-75
2023/04/27 07:21:50;;;;;;;4.70;2.90;;;;;;;13.44;48.45;97299.55;110848;1242;59679;-77
2023/04/27 07:24:20;;;;;;;4.60;3.10;;;;;;;13.47;49.80;97299.81;110328;1249;71954;-76
2023/04/27 07:26:48;;;;;;;4.00;3.00;;;;;;;13.26;47.51;97295.64;110333;1242;68671;-77
2023/04/27 07:29:17;;;;;;;3.30;3.00;;;;;;;12.74;48.02;97292.36;110255;1243;69432;-76
2023/04/27 07:31:55;;;;;;;4.40;2.90;;;;;;;13.30;49.46;97293.39;110107;1242;59685;-76
2023/04/27 07:34:24;;;;;;;3.20;2.50;;;;;;;13.70;48.92;97289.30;110273;1243;59609;-76
2023/04/27 07:36:53;;;;;;;4.00;2.40;;;;;;;13.81;48.33;97292.52;110300;1242;72014;-76
2023/04/27 07:39:22;;;;;;;3.50;2.70;;;;;;;14.18;48.39;97292.16;110223;1240;68454;-78
2023/04/27 07:41:53;;;;;;;4.40;2.70;;;;;;;14.32;46.53;97286.00;110202;1243;69303;-76
2023/04/27 07:44:22;;;;;;;4.10;2.60;;;;;;;14.46;45.47;97292.30;110224;1242;60070;-76
2023/04/27 07:46:53;;;;;;;4.70;2.70;;;;;;;14.59;45.08;97288.55;110218;1242;59645;-76
2023/04/27 07:49:23;;;;;;;2.50;1.90;;;;;;;15.00;45.84;97289.10;110269;1242;70632;-75
2023/04/27 07:51:52;;;;;;;5.30;2.50;;;;;;;14.95;41.94;97284.85;110252;1242;69788;-76
2023/04/27 07:54:21;;;;;;;3.10;2.30;;;;;;;15.11;42.96;97283.20;110225;1242;69248;-75
2023/04/27 07:56:50;;;;;;;3.70;1.90;;;;;;;15.52;43.21;97286.33;110357;1242;59686;-75
2023/04/27 07:59:19;;;;;;;3.60;2.00;;;;;;;15.69;40.92;97279.80;110230;1242;59686;-75
2023/04/27 08:01:48;;;;;;;4.10;2.20;;;;;;;16.03;41.74;97285.73;110317;1242;71567;-75
2023/04/27 08:04:17;;;;;;;4.30;2.00;;;;;;;16.00;40.22;97283.89;110239;1242;69018;-75
2023/04/27 08:06:47;;;;;;;2.40;1.80;;;;;;;16.51;41.44;97284.40;110211;1241;69286;-76
2023/04/27 08:09:17;;;;;;;2.90;1.90;;;;;;;16.72;37.75;97284.87;110232;1241;59682;-75
2023/04/27 08:11:47;;;;;;;3.10;2.00;;;;;;;16.67;38.45;97282.42;110252;1242;59643;-76
2023/04/27 08:14:16;;;;;;;3.30;1.90;;;;;;;16.24;37.67;97281.70;110230;1241;71330;-75
2023/04/27 08:16:44;;;;;;;3.50;1.90;;;;;;;15.32;38.13;97288.54;110195;1241;70163;-75
2023/04/27 08:19:14;;;;;;;4.00;1.90;;;;;;;15.29;39.22;97288.55;110193;1242;69240;-75
2023/04/27 08:21:43;;;;;;;3.80;2.50;;;;;;;15.59;39.87;97286.41;110231;1241;59763;-76
2023/04/27 08:24:12;;;;;;;3.30;1.80;;;;;;;15.46;38.57;97286.84;110264;1241;59689;-75
2023/04/27 08:26:42;;;;;;;3.10;2.50;;;;;;;15.65;39.12;97279.49;110204;1242;70950;-75
2023/04/27 08:29:10;;;;;;;3.00;1.90;;;;;;;15.40;38.68;97286.96;110175;1248;69203;-77
2023/04/27 08:31:58;;;;;;;2.50;1.70;;;;;;;14.51;39.36;97285.52;110147;1241;69062;-77
2023/04/27 08:34:28;;;;;;;2.50;1.70;;;;;;;13.66;40.06;97290.31;110221;1244;59741;-76
2023/04/27 08:36:57;;;;;;;3.60;2.20;;;;;;;13.53;40.91;97296.02;110238;1243;59621;-76
2023/04/27 08:39:26;;;;;;;2.60;1.80;;;;;;;13.27;39.31;97294.33;110273;1242;71434;-76
2023/04/27 08:41:55;;;;;;;2.80;1.60;;;;;;;13.42;38.72;97296.64;110205;1242;69451;-75
2023/04/27 08:44:25;;;;;;;2.70;2.00;;;;;;;13.52;37.82;97289.43;110214;1244;69216;-77
2023/04/27 08:46:53;;;;;;;4.00;2.10;;;;;;;13.59;37.68;97288.41;110335;1242;59679;-76
2023/04/27 08:49:23;;;;;;;;;;;;;;;13.89;38.83;97282.85;110269;1241;60010;-75
2023/04/27 08:51:53;;;;;;;3.10;1.70;;;;;;;14.02;38.44;97283.25;110227;1242;71150;-76
2023/04/27 08:54:21;;;;;;;3.60;1.50;;;;;;;13.67;36.69;97292.15;110219;1240;69811;-76
2023/04/27 08:56:51;;;;;;;2.00;1.70;;;;;;;13.68;37.06;97291.85;110238;1249;70279;-76
2023/04/27 08:59:19;;;;;;;5.60;2.10;;;;;;;13.45;36.11;97284.70;110254;1243;59721;-76
2023/04/27 09:01:49;;;;;;;3.40;2.00;;;;;;;13.08;36.01;97286.90;110104;1240;59746;-77
2023/04/27 09:04:18;;;;;;;;;;;;;;;12.91;37.33;97289.02;110201;1240;70682;-75
2023/04/27 09:06:49;;;;;;;3.70;2.30;;;;;;;12.54;36.43;97281.05;110224;1243;68454;-76
2023/04/27 09:09:22;;;;;;;4.20;2.40;;;;;;;12.17;37.86;97282.02;110268;1243;69897;-77
2023/04/27 09:11:51;;;;;;;4.10;2.00;;;;;;;11.77;39.55;97284.20;110242;1242;59689;-76
2023/04/27 09:14:23;;;;;;;3.20;2.30;;;;;;;11.53;40.84;97288.64;110187;1243;59630;-75
2023/04/27 09:16:58;;;;;;;4.30;2.10;;;;;;;11.42;41.20;97290.92;110228;1242;71355;-75
2023/04/27 09:19:29;;;;;;;3.40;1.80;;;;;;;11.79;40.14;97286.64;110216;1243;69256;-75
2023/04/27 09:22:09;;;;;;;3.30;1.80;;;;;;;12.72;39.25;97283.98;110243;1241;69089;-75
2023/04/27 09:24:49;;;;;;;2.90;1.90;;;;;;;13.38;38.04;97285.73;110235;1242;59742;-75
2023/04/27 09:27:20;;;;;;;2.60;1.80;;;;;;;13.50;37.63;97281.39;110269;1243;59675;-75
2023/04/27 09:29:50;;;;;;;2.90;1.90;;;;;;;13.36;36.50;97284.69;110141;1245;71517;-75
2023/04/27 09:32:19;;;;;;;4.90;2.20;;;;;;;13.44;37.55;97277.54;110253;1242;68970;-75
2023/04/27 09:34:48;;;;;;;5.40;2.20;;;;;;;13.76;36.98;97277.02;110273;1242;69306;-75
2023/04/27 09:37:18;;;;;;;3.40;2.10;;;;;;;13.67;36.74;97275.80;110629;1242;59678;-75
2023/04/27 09:39:48;;;;;;;3.20;1.90;;;;;;;13.52;36.33;97279.23;111161;1242;59635;-75
2023/04/27 09:42:18;;;;;;;3.90;2.10;;;;;;;13.29;37.48;97281.56;110399;1243;70440;-75
2023/04/27 09:44:47;;;;;;;3.00;1.70;;;;;;;13.25;37.84;97280.85;110278;1240;69194;-75
2023/04/27 09:47:16;;;;;;;3.10;1.90;;;;;;;13.87;38.22;97272.81;110267;1240;70319;-76
2023/04/27 09:49:46;;;;;;;2.80;1.90;;;;;;;14.46;36.56;97273.40;110245;1242;59699;-75
2023/04/27 09:52:15;;;;;;;3.80;2.00;;;;;;;14.65;35.54;97281.63;110276;1240;59958;-76
2023/04/27 09:54:45;;;;;;;4.10;2.00;;;;;;;14.53;36.17;97275.77;110197;1242;70418;-75
2023/04/27 09:57:29;;;;;;;;;;;;;;;14.45;35.74;97275.36;110183;1242;69205;-75
2023/04/27 10:00:15;;;;;;;3.10;2.00;;;;;;;14.10;35.41;97270.27;110162;1242;69318;-74
2023/04/27 10:02:55;;;;;;;4.20;2.50;;;;;;;13.56;34.97;97280.52;110180;1241;59654;-74
2023/04/27 10:05:41;;;;;;;4.10;2.40;;;;;;;13.03;35.88;97278.68;110202;1240;59679;-74
2023/04/27 10:08:11;;;;;;;4.40;1.90;;;;;;;12.57;36.68;97278.20;110121;1241;72012;-74
2023/04/27 10:10:49;;;;;;;3.00;2.20;;;;;;;12.24;37.73;97275.86;110200;1242;67497;-75
2023/04/27 10:13:25;;;;;;;2.70;2.30;;;;;;;11.96;38.63;97280.01;110157;1241;69917;-75
2023/04/27 10:15:55;;;;;;;2.60;1.90;;;;;;;11.82;38.73;97277.33;110197;1241;59742;-75
2023/04/27 10:18:27;;;;;;;3.70;2.30;;;;;;;11.77;38.99;97276.70;110158;1249;59687;-75
2023/04/27 10:21:08;;;;;;;4.00;2.40;;;;;;;11.69;39.31;97277.85;110203;1242;70657;-75
2023/04/27 10:23:49;;;;;;;2.90;2.30;;;;;;;11.78;40.36;97280.45;110233;1241;67786;-75
2023/04/27 10:26:26;;;;;;;3.30;2.30;;;;;;;12.25;40.44;97277.48;110202;1242;69854;-75
2023/04/27 10:29:06;;;;;;;4.30;2.00;;;;;;;12.41;40.25;97282.16;110165;1242;59679;-75
2023/04/27 10:31:35;;;;;;;4.20;2.60;;;;;;;12.85;39.32;97287.04;110175;1242;59708;-75
2023/04/27 10:34:09;;;;;;;4.30;2.10;;;;;;;13.12;37.46;97293.21;110056;1247;70440;-75
2023/04/27 10:36:39;;;;;;;3.10;2.20;;;;;;;12.81;37.28;97298.96;110251;1242;68666;-76
2023/04/27 10:39:21;;;;;;;3.10;2.20;;;;;;;12.87;37.03;97297.60;110081;1244;69863;-76
2023/04/27 10:42:04;;;;;;;4.00;2.30;;;;;;;13.05;37.50;97295.68;110147;1244;59745;-76
2023/04/27 10:44:35;;;;;;;2.70;1.90;;;;;;;13.03;36.97;97294.46;110236;1243;59705;-75
2023/04/27 10:47:18;;;;;;;3.10;2.30;;;;;;;12.81;36.76;97295.41;110191;1243;70318;-75
2023/04/27 10:49:51;;;;;;;3.00;2.20;;;;;;;12.60;37.75;97295.81;110244;1242;69779;-75
2023/04/27 10:52:20;;;;;;;3.30;2.30;;;;;;;12.29;37.91;97288.70;110171;1242;68526;-75
2023/04/27 10:54:49;;;;;;;3.50;2.40;;;;;;;12.10;38.70;97295.14;110112;1245;59753;-74
2023/04/27 10:57:18;;;;;;;8.30;5.50;;;;;;;12.26;38.69;97295.45;110191;1243;59678;-74
2023/04/27 10:59:54;;;;;;;10.30;6.40;;;;;;;12.65;38.31;97296.61;110165;1242;72014;-74
2023/04/27 11:02:28;;;;;;;10.00;5.20;;;;;;;12.27;37.26;97292.57;110168;1242;69811;-74
2023/04/27 11:04:57;;;;;;;28.10;14.50;;;;;;;12.80;38.53;97300.26;110083;1245;68428;-73
2023/04/27 11:07:28;;;;;;;5.50;3.20;;;;;;;12.99;38.03;97296.21;110205;1242;59699;-73
2023/04/27 11:09:56;;;;;;;5.80;4.20;;;;;;;13.01;37.68;97293.20;110318;1241;59747;-74
2023/04/27 11:12:26;;;;;;;22.10;11.30;;;;;;;13.06;37.85;97301.19;110141;1240;72358;-75
2023/04/27 11:14:58;;;;;;;12.50;6.90;;;;;;;13.18;36.42;97303.88;110157;1242;69749;-74
2023/04/27 11:17:31;;;;;;;13.30;8.00;;;;;;;13.35;37.39;97302.05;110196;1240;68501;-74
2023/04/27 11:20:00;;;;;;;4.00;2.70;;;;;;;13.90;36.87;97297.63;110222;1241;59734;-74
2023/04/27 11:22:28;;;;;;;6.50;4.50;;;;;;;13.92;36.12;97303.79;110172;1242;59674;-76
2023/04/27 11:24:57;;;;;;;9.50;5.70;;;;;;;13.76;36.49;97306.02;110090;1246;70648;-76
2023/04/27 11:27:37;;;;;;;9.30;5.40;;;;;;;13.55;36.41;97310.70;109798;1245;68467;-74
2023/04/27 11:30:18;;;;;;;6.20;3.70;;;;;;;13.20;38.36;97313.67;110164;1241;68600;-76
2023/04/27 11:32:48;;;;;;;11.00;7.30;;;;;;;12.86;38.21;97312.33;110127;1248;59792;-74
2023/04/27 11:35:18;;;;;;;4.50;3.20;;;;;;;12.48;38.49;97313.88;110243;1245;59691;-75
2023/04/27 11:37:57;;;;;;;5.20;4.10;;;;;;;12.18;38.92;97317.41;110201;1242;69624;-75
2023/04/27 11:40:27;;;;;;;16.30;10.30;;;;;;;12.02;38.89;97322.92;110253;1242;69890;-76